createdAt,value
2018-07-28T10:55:48.546Z,90
2018-07-28T10:56:49.996Z,95
2018-07-28T10:57:51.444Z,101
2018-07-28T10:58:52.850Z,106
2018-07-28T10:59:54.291Z,106
2018-07-28T11:00:55.655Z,118
2018-07-28T11:01:57.073Z,129
2018-07-28T11:02:58.476Z,135
2018-07-28T11:03:59.878Z,140
2018-07-28T11:05:01.278Z,185
2018-07-28T11:06:02.680Z,466
2018-07-28T11:07:04.087Z,202
2018-07-28T11:08:05.497Z,427
2018-07-28T11:09:06.970Z,270
2018-07-28T11:10:08.307Z,225
2018-07-28T11:11:09.707Z,264
2018-07-28T11:12:11.106Z,455
2018-07-28T11:13:12.512Z,298
2018-07-28T11:14:13.914Z,309
2018-07-28T11:15:15.318Z,1620
2018-07-28T11:16:16.725Z,1614
2018-07-28T11:17:18.138Z,1563
2018-07-28T11:18:19.530Z,1558
2018-07-28T11:19:20.936Z,495
2018-07-28T11:20:22.342Z,393
2018-07-28T11:21:23.750Z,652
2018-07-28T11:22:25.164Z,320
2018-07-28T11:23:26.566Z,309
2018-07-28T11:24:27.970Z,1417
2018-07-28T11:25:29.376Z,360
2018-07-28T11:26:30.780Z,292
2018-07-28T11:27:32.185Z,275
2018-07-28T11:28:33.609Z,281
2018-07-28T11:29:35.017Z,326
2018-07-28T11:30:36.423Z,1260
2018-07-28T11:31:37.839Z,1080
2018-07-28T11:32:39.227Z,331
2018-07-28T11:33:40.675Z,1254
2018-07-28T11:34:42.077Z,1186
2018-07-28T11:35:43.587Z,1203
2018-07-28T11:36:45.085Z,1181
2018-07-28T11:37:46.528Z,1046
2018-07-28T11:38:48.877Z,1203
2018-07-28T11:39:50.081Z,984
2018-07-28T11:40:51.489Z,393
2018-07-28T11:41:52.931Z,641
2018-07-28T11:42:54.328Z,1215
2018-07-28T11:43:55.735Z,1130
2018-07-28T11:44:57.152Z,556
2018-07-28T11:45:58.550Z,270
2018-07-28T11:46:59.951Z,225
2018-07-28T11:48:01.362Z,281
2018-07-28T11:49:02.773Z,427
2018-07-28T11:50:04.180Z,1063
2018-07-28T11:51:05.589Z,1063
2018-07-28T11:52:07.003Z,1074
2018-07-28T11:53:08.426Z,995
2018-07-28T11:54:09.834Z,1063
2018-07-28T11:55:11.243Z,1001
2018-07-28T11:56:12.645Z,1080
2018-07-28T11:57:14.055Z,663
2018-07-28T11:58:15.524Z,860
2018-07-28T11:59:16.864Z,343
2018-07-28T12:00:18.276Z,371
2018-07-28T12:01:19.679Z,416
2018-07-28T12:02:21.086Z,1091
2018-07-28T12:03:22.485Z,405
2018-07-28T12:04:23.890Z,950
2018-07-28T12:05:25.326Z,742
2018-07-28T12:06:26.702Z,866
2018-07-28T12:07:28.103Z,382
2018-07-28T12:08:29.504Z,686
2018-07-28T12:09:30.914Z,523
2018-07-28T12:10:32.322Z,736
2018-07-28T12:11:33.730Z,275
2018-07-28T12:12:35.225Z,241
2018-07-28T12:13:36.625Z,230
2018-07-28T12:14:38.088Z,219
2018-07-28T12:15:39.486Z,219
2018-07-28T12:16:41.286Z,264
2018-07-28T12:17:42.690Z,939
2018-07-28T12:18:44.096Z,669
2018-07-28T12:19:45.501Z,382
2018-07-28T12:20:46.909Z,326
2018-07-28T12:21:48.311Z,320
2018-07-28T12:22:49.713Z,247
2018-07-28T12:23:51.141Z,225
2018-07-28T12:24:52.518Z,213
2018-07-28T12:25:53.919Z,275
2018-07-28T12:26:55.319Z,241
2018-07-28T12:27:56.726Z,247
2018-07-28T12:28:58.143Z,275
2018-07-28T12:29:59.545Z,264
2018-07-28T12:31:00.949Z,382
2018-07-28T12:32:02.355Z,714
2018-07-28T12:33:03.754Z,298
2018-07-28T12:34:05.166Z,230
2018-07-28T12:35:06.567Z,196
2018-07-28T12:36:07.969Z,191
2018-07-28T12:37:09.371Z,196
2018-07-28T12:38:10.770Z,208
2018-07-28T12:39:12.178Z,236
2018-07-28T12:40:13.582Z,393
2018-07-28T12:41:14.990Z,309
2018-07-28T12:42:16.390Z,247
2018-07-28T12:43:17.796Z,253
2018-07-28T12:44:19.194Z,213
2018-07-28T12:45:20.598Z,208
2018-07-28T12:46:21.996Z,225
2018-07-28T12:47:23.400Z,264
2018-07-28T12:48:24.804Z,371
2018-07-28T12:49:26.219Z,646
2018-07-28T12:50:27.618Z,725
2018-07-28T12:51:29.018Z,911
2018-07-28T12:52:30.547Z,945
2018-07-28T12:53:32.086Z,1029
2018-07-28T12:54:33.493Z,984
2018-07-28T12:55:34.932Z,1057
2018-07-28T12:56:36.320Z,720
2018-07-28T12:57:37.793Z,348
2018-07-28T12:58:39.206Z,466
2018-07-28T12:59:40.614Z,450
2018-07-28T13:00:42.009Z,315
2018-07-28T13:01:43.412Z,298
2018-07-28T13:02:47.185Z,309
2018-07-28T13:03:48.650Z,326
2018-07-28T13:04:51.438Z,360
2018-07-28T13:05:52.730Z,421
2018-07-28T13:06:54.143Z,365
2018-07-28T13:07:55.552Z,562
2018-07-28T13:08:56.960Z,562
2018-07-28T13:09:58.366Z,309
2018-07-28T13:10:59.775Z,405
2018-07-28T13:12:01.182Z,748
2018-07-28T13:13:02.595Z,646
2018-07-28T13:14:04.000Z,742
2018-07-28T13:15:05.407Z,765
2018-07-28T13:16:06.813Z,725
2018-07-28T13:17:08.227Z,298
2018-07-28T13:18:09.635Z,871
2018-07-28T13:19:11.044Z,883
2018-07-28T13:20:12.771Z,928
2018-07-28T13:21:13.870Z,528
2018-07-28T13:22:15.273Z,309
2018-07-28T13:23:16.675Z,270
2018-07-28T13:24:18.082Z,219
2018-07-28T13:25:19.484Z,196
2018-07-28T13:26:20.889Z,174
2018-07-28T13:27:22.363Z,168
2018-07-28T13:28:23.774Z,174
2018-07-28T13:29:25.175Z,196
2018-07-28T13:30:26.579Z,241
2018-07-28T13:31:29.342Z,292
2018-07-28T13:32:30.747Z,826
2018-07-28T13:33:32.157Z,888
2018-07-28T13:34:33.562Z,753
2018-07-28T13:35:36.431Z,753
2018-07-28T13:36:37.842Z,579
2018-07-28T13:37:39.255Z,326
2018-07-28T13:38:40.668Z,382
2018-07-28T13:39:42.069Z,286
2018-07-28T13:40:43.473Z,320
2018-07-28T13:41:44.881Z,275
2018-07-28T13:42:46.304Z,264
2018-07-28T13:43:47.722Z,270
2018-07-28T13:44:49.127Z,337
2018-07-28T13:45:50.528Z,309
2018-07-28T13:46:51.933Z,275
2018-07-28T13:47:53.339Z,270
2018-07-28T13:48:54.743Z,258
2018-07-28T13:49:56.148Z,241
2018-07-28T13:50:57.548Z,247
2018-07-28T13:51:58.955Z,562
2018-07-28T13:53:00.356Z,376
2018-07-28T13:54:01.763Z,405
2018-07-28T13:55:03.168Z,466
2018-07-28T13:56:04.571Z,286
2018-07-28T13:57:05.977Z,230
2018-07-28T13:58:07.382Z,208
2018-07-28T13:59:08.785Z,191
2018-07-28T14:00:10.203Z,196
2018-07-28T14:01:11.589Z,270
2018-07-28T14:02:13.000Z,315
2018-07-28T14:03:14.558Z,500
2018-07-28T14:04:15.962Z,506
2018-07-28T14:05:17.366Z,489
2018-07-28T14:06:18.761Z,416
2018-07-28T14:07:20.163Z,348
2018-07-28T14:08:21.573Z,354
2018-07-28T14:09:22.976Z,551
2018-07-28T14:10:24.377Z,337
2018-07-28T14:11:25.779Z,343
2018-07-28T14:12:27.183Z,343
2018-07-28T14:13:28.589Z,270
2018-07-28T14:14:30.045Z,258
2018-07-28T14:15:31.395Z,247
2018-07-28T14:16:32.798Z,264
2018-07-28T14:17:34.202Z,343
2018-07-28T14:18:35.777Z,399
2018-07-28T14:19:37.012Z,275
2018-07-28T14:20:38.415Z,236
2018-07-28T14:21:39.878Z,219
2018-07-28T14:22:41.319Z,241
2018-07-28T14:23:42.724Z,202
2018-07-28T14:24:44.121Z,191
2018-07-28T14:25:45.521Z,202
2018-07-28T14:26:46.922Z,236
2018-07-28T14:27:48.328Z,225
2018-07-28T14:28:49.774Z,247
2018-07-28T14:29:51.190Z,208
2018-07-28T14:30:52.592Z,219
2018-07-28T14:31:53.999Z,230
2018-07-28T14:32:55.398Z,270
2018-07-28T14:33:56.802Z,354
2018-07-28T14:34:58.217Z,337
2018-07-28T14:35:59.623Z,315
2018-07-28T14:37:01.026Z,281
2018-07-28T14:38:02.713Z,315
2018-07-28T14:39:03.808Z,326
2018-07-28T14:40:05.214Z,326
2018-07-28T14:41:06.615Z,343
2018-07-28T14:42:08.089Z,360
2018-07-28T14:43:09.533Z,286
2018-07-28T14:44:10.950Z,270
2018-07-28T14:45:12.359Z,292
2018-07-28T14:46:13.765Z,326
2018-07-28T14:47:15.162Z,331
2018-07-28T14:48:16.564Z,331
2018-07-28T14:49:17.981Z,331
2018-07-28T14:50:19.381Z,478
2018-07-28T14:51:20.786Z,646
2018-07-28T14:52:22.185Z,376
2018-07-28T14:53:23.585Z,450
2018-07-28T14:54:24.991Z,472
2018-07-28T14:55:26.400Z,607
2018-07-28T14:56:27.802Z,489
2018-07-28T14:57:29.210Z,421
2018-07-28T14:58:30.619Z,388
2018-07-28T14:59:32.022Z,326
2018-07-28T15:00:33.421Z,348
2018-07-28T15:01:34.822Z,326
2018-07-28T15:02:36.226Z,292
2018-07-28T15:03:37.625Z,337
2018-07-28T15:04:39.035Z,427
2018-07-28T15:05:40.441Z,393
2018-07-28T15:06:41.844Z,382
2018-07-28T15:07:43.256Z,556
2018-07-28T15:08:45.949Z,337
2018-07-28T15:09:47.357Z,478
2018-07-28T15:10:48.762Z,573
2018-07-28T15:11:50.170Z,585
2018-07-28T15:12:51.581Z,562
2018-07-28T15:13:52.983Z,590
2018-07-28T15:14:54.383Z,551
2018-07-28T15:15:55.791Z,376
2018-07-28T15:16:57.193Z,320
2018-07-28T15:17:58.604Z,506
2018-07-28T15:19:00.016Z,579
2018-07-28T15:20:01.558Z,585
2018-07-28T15:21:02.987Z,568
2018-07-28T15:22:04.386Z,562
2018-07-28T15:23:05.794Z,551
2018-07-28T15:24:07.203Z,540
2018-07-28T15:25:08.613Z,365
2018-07-28T15:26:10.023Z,309
2018-07-28T15:27:11.427Z,421
2018-07-28T15:28:12.848Z,517
2018-07-28T15:29:14.243Z,523
2018-07-28T15:30:15.647Z,523
2018-07-28T15:31:17.049Z,168
2018-07-28T15:32:18.455Z,500
2018-07-28T15:33:19.862Z,500
2018-07-28T15:34:21.267Z,495
2018-07-28T15:35:22.677Z,140
2018-07-28T15:36:24.079Z,129
2018-07-28T15:37:25.483Z,129
2018-07-28T15:38:26.886Z,483
2018-07-28T15:39:28.296Z,540
2018-07-28T15:40:29.707Z,523
2018-07-28T15:41:31.108Z,478
2018-07-28T15:42:32.518Z,483
2018-07-28T15:43:33.934Z,348
2018-07-28T15:44:35.321Z,163
2018-07-28T15:45:36.728Z,461
2018-07-28T15:46:38.132Z,506
2018-07-28T15:47:39.571Z,185
2018-07-28T15:48:40.977Z,140
2018-07-28T15:49:42.387Z,382
2018-07-28T15:50:43.786Z,129
2018-07-28T15:51:45.180Z,129
2018-07-28T15:52:46.585Z,135
2018-07-28T15:53:47.985Z,129
2018-07-28T15:54:49.392Z,123
2018-07-28T15:55:50.801Z,118
2018-07-28T15:56:52.207Z,129
2018-07-28T15:57:53.611Z,118
2018-07-28T15:58:55.013Z,118
2018-07-28T15:59:56.486Z,123
2018-07-28T16:00:57.920Z,438
2018-07-28T16:01:59.324Z,450
2018-07-28T16:03:00.724Z,461
2018-07-28T16:04:02.130Z,433
2018-07-28T16:05:03.530Z,438
2018-07-28T16:06:05.008Z,433
2018-07-28T16:07:06.352Z,410
2018-07-28T16:08:08.029Z,416
2018-07-28T16:09:09.483Z,405
2018-07-28T16:10:10.957Z,393
2018-07-28T16:11:12.460Z,388
2018-07-28T16:12:13.941Z,393
2018-07-28T16:13:15.411Z,371
2018-07-28T16:14:16.834Z,371
2018-07-28T16:15:18.242Z,382
2018-07-28T16:16:19.651Z,388
2018-07-28T16:17:21.057Z,382
2018-07-28T16:18:22.462Z,382
2018-07-28T16:19:23.865Z,382
2018-07-28T16:20:25.266Z,382
2018-07-28T16:21:26.669Z,382
2018-07-28T16:22:28.138Z,376
2018-07-28T16:23:29.543Z,371
2018-07-28T16:24:31.361Z,371
2018-07-28T16:25:32.765Z,365
2018-07-28T16:26:34.184Z,365
2018-07-28T16:27:35.621Z,371
2018-07-28T16:28:37.006Z,157
2018-07-28T16:29:38.649Z,326
2018-07-28T16:30:40.728Z,348
2018-07-28T16:31:42.547Z,348
2018-07-28T16:32:43.946Z,163
2018-07-28T16:33:46.929Z,343
2018-07-28T16:34:48.458Z,343
2018-07-28T16:35:49.852Z,343
2018-07-28T16:36:51.961Z,337
2018-07-28T16:37:54.920Z,331
2018-07-28T16:38:56.321Z,331
2018-07-28T16:39:57.726Z,331
2018-07-28T16:40:59.132Z,326
2018-07-28T16:42:00.554Z,320
2018-07-28T16:43:04.126Z,320
2018-07-28T16:44:05.532Z,320
2018-07-28T16:45:06.935Z,326
2018-07-28T16:46:08.337Z,309
2018-07-28T16:47:09.912Z,298
2018-07-28T16:48:11.915Z,315
2018-07-28T16:49:15.925Z,309
2018-07-28T16:50:17.283Z,270
2018-07-28T16:51:18.692Z,258
2018-07-28T16:52:20.137Z,281
2018-07-28T16:53:21.670Z,281
2018-07-28T16:54:23.094Z,281
2018-07-28T16:55:24.495Z,270
2018-07-28T16:56:25.899Z,275
2018-07-28T16:57:27.305Z,95
2018-07-28T16:58:28.741Z,95
2018-07-28T16:59:30.144Z,225
2018-07-28T17:00:32.060Z,118
2018-07-28T17:01:33.467Z,236
2018-07-28T17:02:36.305Z,101
2018-07-28T17:03:37.351Z,95
2018-07-28T17:04:38.753Z,78
2018-07-28T17:05:41.151Z,112
2018-07-28T17:06:42.554Z,225
2018-07-28T17:07:43.954Z,213
2018-07-28T17:08:45.359Z,84
2018-07-28T17:09:46.756Z,196
2018-07-28T17:10:48.157Z,180
2018-07-28T17:11:49.559Z,174
2018-07-28T17:12:50.964Z,146
2018-07-28T17:13:52.395Z,118
2018-07-28T17:14:53.769Z,123
2018-07-28T17:15:55.206Z,135
2018-07-28T17:16:56.609Z,118
2018-07-28T17:17:58.012Z,225
2018-07-28T17:18:59.460Z,219
2018-07-28T17:20:00.868Z,219
2018-07-28T17:21:02.270Z,191
2018-07-28T17:22:03.679Z,196
2018-07-28T17:23:05.092Z,191
2018-07-28T17:24:06.764Z,196
2018-07-28T17:25:11.042Z,191
2018-07-28T17:26:12.438Z,163
2018-07-28T17:27:13.845Z,168
2018-07-28T17:28:15.273Z,185
2018-07-28T17:29:16.991Z,185
2018-07-28T17:30:18.398Z,90
2018-07-28T17:31:19.805Z,118
2018-07-28T17:32:22.396Z,180
2018-07-28T17:33:23.801Z,185
2018-07-28T17:34:25.289Z,180
2018-07-28T17:35:26.696Z,174
2018-07-28T17:36:28.095Z,168
2018-07-28T17:37:29.531Z,174
2018-07-28T17:38:30.928Z,180
2018-07-28T17:39:33.030Z,180
2018-07-28T17:40:34.424Z,180
2018-07-28T17:41:35.828Z,180
2018-07-28T17:42:37.850Z,180
2018-07-28T17:43:39.254Z,185
2018-07-28T17:44:40.665Z,174
2018-07-28T17:45:42.070Z,157
2018-07-28T17:46:43.532Z,112
2018-07-28T17:47:44.872Z,163
2018-07-28T17:48:47.124Z,202
2018-07-28T17:49:48.525Z,168
2018-07-28T17:50:49.928Z,146
2018-07-28T17:51:53.095Z,135
2018-07-28T17:52:54.036Z,135
2018-07-28T17:53:55.438Z,112
2018-07-28T17:54:56.833Z,73
2018-07-28T17:55:59.696Z,95
2018-07-28T17:57:01.099Z,67
2018-07-28T17:58:02.568Z,61
2018-07-28T17:59:07.056Z,61
2018-07-28T18:00:08.340Z,95
2018-07-28T18:01:09.739Z,174
2018-07-28T18:02:11.141Z,236
2018-07-28T18:03:12.592Z,241
2018-07-28T18:04:20.067Z,140
2018-07-28T18:05:21.467Z,219
2018-07-28T18:06:22.872Z,151
2018-07-28T18:07:24.278Z,146
2018-07-28T18:08:28.163Z,151
2018-07-28T18:09:29.562Z,253
2018-07-28T18:10:30.964Z,382
2018-07-28T18:11:32.368Z,309
2018-07-28T18:12:33.784Z,129
2018-07-28T18:13:35.259Z,95
2018-07-28T18:14:38.033Z,90
2018-07-28T18:15:40.110Z,90
2018-07-28T18:16:41.505Z,95
2018-07-28T18:17:42.911Z,112
2018-07-28T18:18:44.318Z,95
2018-07-28T18:19:45.724Z,123
2018-07-28T18:20:47.874Z,180
2018-07-28T18:21:49.239Z,118
2018-07-28T18:22:50.673Z,112
2018-07-28T18:23:52.129Z,73
2018-07-28T18:24:54.123Z,67
2018-07-28T18:25:55.374Z,50
2018-07-28T18:26:56.841Z,56
2018-07-28T18:27:58.295Z,50
2018-07-28T18:29:00.318Z,50
2018-07-28T18:30:01.728Z,50
2018-07-28T18:31:03.126Z,50
2018-07-28T18:32:04.528Z,45
2018-07-28T18:33:05.962Z,50
2018-07-28T18:34:07.376Z,45
2018-07-28T18:35:08.771Z,39
2018-07-28T18:36:10.176Z,39
2018-07-28T18:37:11.601Z,33
2018-07-28T18:38:13.004Z,33
2018-07-28T18:39:14.439Z,33
2018-07-28T18:40:15.839Z,33
2018-07-28T18:41:17.322Z,33
2018-07-28T18:42:18.723Z,28
2018-07-28T18:43:20.247Z,28
2018-07-28T18:44:21.650Z,28
2018-07-28T18:45:23.041Z,28
2018-07-28T18:46:24.458Z,28
2018-07-28T18:47:25.849Z,28
2018-07-28T18:48:27.248Z,22
2018-07-28T18:49:28.657Z,22
2018-07-28T18:50:30.047Z,22
2018-07-28T18:51:31.480Z,22
2018-07-28T18:52:32.880Z,22
2018-07-28T18:53:34.797Z,22
2018-07-28T18:54:36.219Z,16
2018-07-28T18:55:37.630Z,16
2018-07-28T18:56:39.073Z,16
2018-07-28T18:57:40.427Z,16
2018-07-28T18:58:41.833Z,16
2018-07-28T18:59:43.231Z,16
2018-07-28T19:00:44.652Z,11
2018-07-28T19:01:46.056Z,11
2018-07-28T19:02:47.459Z,11
2018-07-28T19:03:48.860Z,11
2018-07-28T19:04:50.376Z,11
2018-07-28T19:05:51.751Z,11
2018-07-28T19:06:53.153Z,5
2018-07-28T19:07:54.549Z,5
2018-07-28T19:08:55.949Z,5
2018-07-28T19:09:57.347Z,5
2018-07-28T19:10:58.750Z,5
2018-07-28T19:12:00.150Z,5
2018-07-28T19:13:01.556Z,5
2018-07-28T19:14:02.957Z,5
2018-07-28T19:15:04.358Z,5
2018-07-28T19:16:05.749Z,5
2018-07-28T19:17:07.145Z,0
2018-07-28T19:18:08.558Z,0
2018-07-28T19:19:09.941Z,0
2018-07-28T19:20:11.388Z,0
2018-07-28T19:21:12.791Z,0
2018-07-28T19:22:14.192Z,0
2018-07-28T19:23:15.594Z,0
2018-07-28T19:24:16.991Z,0
2018-07-28T19:25:18.397Z,0
2018-07-28T19:26:19.788Z,0
2018-07-28T19:27:21.191Z,0
2018-07-28T19:28:22.589Z,0
2018-07-28T19:29:23.988Z,0
2018-07-28T19:30:25.383Z,0
2018-07-28T19:31:26.780Z,0
2018-07-28T19:32:28.172Z,0
2018-07-28T19:33:29.567Z,0
2018-07-28T19:34:30.966Z,0
2018-07-28T19:35:32.364Z,0
2018-07-28T19:36:33.771Z,0
2018-07-28T19:37:35.159Z,0
2018-07-28T19:38:36.560Z,0
2018-07-28T19:39:37.955Z,0
2018-07-28T19:40:39.352Z,0
2018-07-28T19:41:40.760Z,0
2018-07-28T19:42:42.161Z,0
2018-07-28T19:43:43.555Z,0
2018-07-28T19:44:45.056Z,0
2018-07-28T19:45:46.556Z,0
2018-07-28T19:46:47.954Z,0
2018-07-28T19:47:49.385Z,0
2018-07-28T19:48:51.621Z,0
2018-07-28T19:49:53.017Z,0
2018-07-28T19:50:54.413Z,0
2018-07-28T19:51:56.484Z,0
2018-07-28T19:52:57.879Z,0
2018-07-28T19:53:59.945Z,0
2018-07-28T19:55:01.336Z,0
2018-07-28T19:56:02.656Z,0
2018-07-28T19:57:04.054Z,0
2018-07-28T19:58:05.450Z,0
2018-07-28T19:59:06.868Z,0
2018-07-28T20:00:12.101Z,0
2018-07-28T20:01:13.365Z,0
2018-07-28T20:02:14.765Z,0
2018-07-28T20:03:21.757Z,0
2018-07-28T20:04:23.093Z,0
2018-07-28T20:05:24.580Z,0
2018-07-28T20:06:26.008Z,0
2018-07-28T20:07:27.404Z,0
2018-07-28T20:08:29.324Z,0
2018-07-28T20:09:30.749Z,0
2018-07-28T20:10:32.219Z,0
2018-07-28T20:11:33.619Z,0
2018-07-28T20:12:35.021Z,0
2018-07-28T20:13:37.084Z,0
2018-07-28T20:14:38.448Z,0
2018-07-28T20:15:39.850Z,0
2018-07-28T20:16:41.762Z,0
2018-07-28T20:17:43.194Z,0
2018-07-28T20:18:45.192Z,0
2018-07-28T20:19:46.735Z,0
2018-07-28T20:20:48.046Z,0
2018-07-28T20:21:49.743Z,0
2018-07-28T20:22:51.143Z,0
2018-07-28T20:23:52.608Z,0
2018-07-28T20:24:54.308Z,0
2018-07-28T20:25:55.708Z,0
2018-07-28T20:26:57.523Z,0
2018-07-28T20:27:58.919Z,0
2018-07-28T20:29:00.318Z,0
2018-07-28T20:30:01.716Z,0
2018-07-28T20:31:03.259Z,0
2018-07-28T20:32:05.015Z,0
2018-07-28T20:33:06.515Z,0
2018-07-28T20:34:07.914Z,0
2018-07-28T20:35:09.314Z,0
2018-07-28T20:36:11.005Z,0
2018-07-28T20:37:12.647Z,0
2018-07-28T20:38:14.294Z,0
2018-07-28T20:39:15.720Z,0
2018-07-28T20:40:17.121Z,0
2018-07-28T20:41:18.865Z,0
2018-07-28T20:42:20.328Z,0
2018-07-28T20:43:21.762Z,0
2018-07-28T20:44:23.594Z,0
2018-07-28T20:45:24.996Z,0
2018-07-28T20:46:26.388Z,0
2018-07-28T20:47:27.814Z,0
2018-07-28T20:48:29.195Z,0
2018-07-28T20:49:30.594Z,0
2018-07-28T20:50:31.990Z,0
2018-07-28T20:51:33.384Z,0
2018-07-28T20:52:35.011Z,0
2018-07-28T20:53:36.407Z,0
2018-07-28T20:54:37.834Z,0
2018-07-28T20:55:39.600Z,0
2018-07-28T20:56:40.997Z,0
2018-07-28T20:57:42.863Z,0
2018-07-28T20:58:44.261Z,0
2018-07-28T20:59:45.659Z,0
2018-07-28T21:00:47.049Z,0
2018-07-28T21:01:48.450Z,0
2018-07-28T21:02:49.846Z,0
2018-07-28T21:03:51.242Z,0
2018-07-28T21:04:52.826Z,0
2018-07-28T21:05:54.228Z,0
2018-07-28T21:06:55.624Z,0
2018-07-28T21:07:57.022Z,0
2018-07-28T21:08:59.079Z,0
2018-07-28T21:10:00.521Z,0
2018-07-28T21:11:01.877Z,0
2018-07-28T21:12:03.742Z,0
2018-07-28T21:13:05.141Z,0
2018-07-28T21:14:06.538Z,0
2018-07-28T21:15:07.941Z,0
2018-07-28T21:16:09.342Z,0
2018-07-28T21:17:10.744Z,0
2018-07-28T21:18:12.216Z,0
2018-07-28T21:19:13.775Z,0
2018-07-28T21:20:15.396Z,0
2018-07-28T21:21:16.878Z,0
2018-07-28T21:22:18.269Z,0
2018-07-28T21:23:19.665Z,0
2018-07-28T21:24:21.388Z,0
2018-07-28T21:25:22.784Z,0
2018-07-28T21:26:24.336Z,0
2018-07-28T21:27:25.737Z,0
2018-07-28T21:28:27.138Z,0
2018-07-28T21:29:28.779Z,0
2018-07-28T21:30:30.182Z,0
2018-07-28T21:31:31.580Z,0
2018-07-28T21:32:32.976Z,0
2018-07-28T21:33:34.623Z,0
2018-07-28T21:34:36.306Z,0
2018-07-28T21:35:38.104Z,0
2018-07-28T21:36:39.499Z,0
2018-07-28T21:37:41.011Z,0
2018-07-28T21:38:42.462Z,0
2018-07-28T21:39:43.856Z,0
2018-07-28T21:40:45.487Z,0
2018-07-28T21:41:46.877Z,0
2018-07-28T21:42:48.279Z,0
2018-07-28T21:43:50.339Z,0
2018-07-28T21:44:51.732Z,0
2018-07-28T21:45:53.146Z,0
2018-07-28T21:46:54.719Z,0
2018-07-28T21:47:56.114Z,0
2018-07-28T21:48:57.508Z,0
2018-07-28T21:49:59.298Z,0
2018-07-28T21:51:00.700Z,0
2018-07-28T21:52:02.094Z,0
2018-07-28T21:53:03.487Z,0
2018-07-28T21:54:04.941Z,0
2018-07-28T21:55:06.338Z,0
2018-07-28T21:56:07.945Z,0
2018-07-28T21:57:09.338Z,0
2018-07-28T21:58:11.181Z,0
2018-07-28T21:59:12.577Z,0
2018-07-28T22:00:13.973Z,0
2018-07-28T22:01:15.380Z,0
2018-07-28T22:02:16.779Z,0
2018-07-28T22:03:18.371Z,0
2018-07-28T22:04:19.871Z,0
2018-07-28T22:05:21.281Z,0
2018-07-28T22:06:23.096Z,0
2018-07-28T22:07:24.632Z,0
2018-07-28T22:08:26.027Z,0
2018-07-28T22:09:27.423Z,0
2018-07-28T22:10:28.824Z,0
2018-07-28T22:11:30.219Z,0
2018-07-28T22:12:31.613Z,0
2018-07-28T22:13:33.015Z,0
2018-07-28T22:14:34.407Z,0
2018-07-28T22:15:35.808Z,0
2018-07-28T22:16:37.201Z,0
2018-07-28T22:17:38.595Z,0
2018-07-28T22:18:39.988Z,0
2018-07-28T22:19:41.385Z,0
2018-07-28T22:20:42.802Z,0
2018-07-28T22:21:44.199Z,0
2018-07-28T22:22:45.597Z,0
2018-07-28T22:23:47.054Z,0
2018-07-28T22:24:48.395Z,0
2018-07-28T22:25:49.807Z,0
2018-07-28T22:26:51.210Z,0
2018-07-28T22:27:52.636Z,0
2018-07-28T22:28:54.026Z,0
2018-07-28T22:29:55.442Z,0
2018-07-28T22:30:56.840Z,0
2018-07-28T22:31:58.255Z,0
2018-07-28T22:32:59.654Z,0
2018-07-28T22:34:01.053Z,0
2018-07-28T22:35:02.453Z,0
2018-07-28T22:36:03.844Z,0
2018-07-28T22:37:05.239Z,0
2018-07-28T22:38:06.646Z,0
2018-07-28T22:39:08.043Z,0
2018-07-28T22:40:09.435Z,0
2018-07-28T22:41:10.831Z,0
2018-07-28T22:42:12.224Z,0
2018-07-28T22:43:13.624Z,0
2018-07-28T22:44:15.022Z,0
2018-07-28T22:45:16.417Z,0
2018-07-28T22:46:17.816Z,0
2018-07-28T22:47:19.209Z,0
2018-07-28T22:48:20.602Z,0
2018-07-28T22:49:21.995Z,0
2018-07-28T22:50:23.401Z,0
2018-07-28T22:51:24.788Z,0
2018-07-28T22:52:26.193Z,0
2018-07-28T22:53:27.588Z,0
2018-07-28T22:54:28.985Z,0
2018-07-28T22:55:30.380Z,0
2018-07-28T22:56:31.772Z,0
2018-07-28T22:57:33.172Z,0
2018-07-28T22:58:34.568Z,0
2018-07-28T22:59:35.964Z,0
2018-07-28T23:00:37.362Z,0
2018-07-28T23:01:38.757Z,0
2018-07-28T23:02:40.145Z,0
2018-07-28T23:03:41.550Z,0
2018-07-28T23:04:42.947Z,0
2018-07-28T23:05:44.347Z,0
2018-07-28T23:06:45.737Z,0
2018-07-28T23:07:47.155Z,0
2018-07-28T23:08:48.550Z,0
2018-07-28T23:09:49.947Z,0
2018-07-28T23:10:51.337Z,0
2018-07-28T23:11:52.803Z,0
2018-07-28T23:12:54.194Z,0
2018-07-28T23:13:55.592Z,0
2018-07-28T23:14:56.995Z,0
2018-07-28T23:15:58.392Z,0
2018-07-28T23:16:59.789Z,0
2018-07-28T23:18:01.180Z,0
2018-07-28T23:19:02.573Z,0
2018-07-28T23:20:03.974Z,0
2018-07-28T23:21:05.371Z,0
2018-07-28T23:22:06.765Z,0
2018-07-28T23:23:08.156Z,0
2018-07-28T23:24:09.547Z,0
2018-07-28T23:25:10.941Z,0
2018-07-28T23:26:12.348Z,0
2018-07-28T23:27:13.745Z,0
2018-07-28T23:28:15.139Z,0
2018-07-28T23:29:16.539Z,0
2018-07-28T23:30:17.928Z,0
2018-07-28T23:31:19.324Z,0
2018-07-28T23:32:20.723Z,0
2018-07-28T23:33:22.119Z,0
2018-07-28T23:34:23.516Z,0
2018-07-28T23:35:24.937Z,0
2018-07-28T23:36:26.335Z,0
2018-07-28T23:37:27.730Z,0
2018-07-28T23:38:29.126Z,0
2018-07-28T23:39:30.525Z,0
2018-07-28T23:40:31.913Z,0
2018-07-28T23:41:33.322Z,0
2018-07-28T23:42:34.698Z,0
2018-07-28T23:43:36.104Z,0
2018-07-28T23:44:37.502Z,0
2018-07-28T23:45:38.897Z,0
2018-07-28T23:46:40.289Z,0
2018-07-28T23:47:41.686Z,0
2018-07-28T23:48:43.080Z,0
2018-07-28T23:49:44.480Z,0
2018-07-28T23:50:45.871Z,0
2018-07-28T23:51:47.316Z,0
2018-07-28T23:52:48.715Z,0
2018-07-28T23:53:50.111Z,0
2018-07-28T23:54:51.506Z,0
2018-07-28T23:55:52.905Z,0
2018-07-28T23:56:54.301Z,0
2018-07-28T23:57:55.711Z,0
2018-07-28T23:58:57.095Z,0
2018-07-28T23:59:58.489Z,0
